createdAt,value
2018-07-22T00:22:26.037Z,7.50
2018-07-22T00:24:55.275Z,8.30
2018-07-22T00:27:24.548Z,8.73
2018-07-22T00:29:53.807Z,8.70
2018-07-22T00:32:23.044Z,8.47
2018-07-22T00:34:52.286Z,9.23
2018-07-22T00:37:21.523Z,10.40
2018-07-22T00:39:50.770Z,10.93
2018-07-22T00:42:20.105Z,9.70
2018-07-22T00:44:49.352Z,7.63
2018-07-22T00:47:18.915Z,7.90
2018-07-22T00:49:48.202Z,8.57
2018-07-22T00:52:17.842Z,8.67
2018-07-22T00:54:47.146Z,9.30
2018-07-22T00:57:16.404Z,9.13
2018-07-22T00:59:45.720Z,9.73
2018-07-22T01:02:14.893Z,11.00
2018-07-22T01:04:44.216Z,11.33
2018-07-22T01:07:13.603Z,11.03
2018-07-22T01:10:14.726Z,10.20
2018-07-22T01:12:44.045Z,10.83
2018-07-22T01:15:13.259Z,9.93
2018-07-22T01:17:42.512Z,10.30
2018-07-22T01:20:11.831Z,11.00
2018-07-22T01:22:40.829Z,10.57
2018-07-22T01:25:10.080Z,11.40
2018-07-22T01:27:39.321Z,10.90
2018-07-22T01:30:09.978Z,11.37
2018-07-22T01:32:39.732Z,12.40
2018-07-22T01:35:09.149Z,10.97
2018-07-22T01:37:38.423Z,11.43
2018-07-22T01:40:07.985Z,10.80
2018-07-22T01:42:37.265Z,11.00
2018-07-22T01:45:06.594Z,11.70
2018-07-22T01:47:35.607Z,10.50
2018-07-22T01:50:05.255Z,10.93
2018-07-22T01:52:34.531Z,11.20
2018-07-22T01:55:03.823Z,11.40
2018-07-22T01:57:33.014Z,11.50
2018-07-22T02:00:02.304Z,10.20
2018-07-22T02:02:31.568Z,10.10
2018-07-22T02:05:00.834Z,9.70
2018-07-22T02:07:30.281Z,10.83
2018-07-22T02:09:59.670Z,10.55
2018-07-22T02:12:28.940Z,10.40
2018-07-22T02:14:58.199Z,9.77
2018-07-22T02:17:27.591Z,9.43
2018-07-22T02:19:56.885Z,9.70
2018-07-22T02:22:26.180Z,10.00
2018-07-22T02:24:55.450Z,9.20
2018-07-22T02:27:24.808Z,9.07
2018-07-22T02:29:54.053Z,9.43
2018-07-22T02:32:23.323Z,8.60
2018-07-22T02:34:52.578Z,9.60
2018-07-22T02:37:21.875Z,8.80
2018-07-22T02:39:51.169Z,8.73
2018-07-22T02:42:20.479Z,9.10
2018-07-22T02:44:49.724Z,8.70
2018-07-22T02:47:19.009Z,9.47
2018-07-22T02:49:48.340Z,9.50
2018-07-22T02:52:17.689Z,10.03
2018-07-22T02:54:47.044Z,9.17
2018-07-22T02:57:16.276Z,10.10
2018-07-22T02:59:45.606Z,10.43
2018-07-22T03:02:14.859Z,10.30
2018-07-22T03:04:44.127Z,10.43
2018-07-22T03:07:13.408Z,10.30
2018-07-22T03:09:42.995Z,10.60
2018-07-22T03:12:12.281Z,10.47
2018-07-22T03:14:44.402Z,11.03
2018-07-22T03:17:13.959Z,11.10
2018-07-22T03:19:43.196Z,10.95
2018-07-22T03:22:12.430Z,10.70
2018-07-22T03:24:41.650Z,10.93
2018-07-22T03:27:11.066Z,10.10
2018-07-22T03:29:40.299Z,10.50
2018-07-22T03:32:09.580Z,10.17
2018-07-22T03:34:38.885Z,9.40
2018-07-22T03:37:08.378Z,9.93
2018-07-22T03:39:37.630Z,10.97
2018-07-22T03:42:06.969Z,10.20
2018-07-22T03:44:36.211Z,12.30
2018-07-22T03:47:05.634Z,12.20
2018-07-22T03:49:36.028Z,12.18
2018-07-22T03:52:05.250Z,12.93
2018-07-22T03:54:34.506Z,12.85
2018-07-22T03:57:03.811Z,14.67
2018-07-22T03:59:33.050Z,12.47
2018-07-22T04:02:02.315Z,11.63
2018-07-22T04:04:31.606Z,11.27
2018-07-22T04:07:00.907Z,11.57
2018-07-22T04:09:30.103Z,11.33
2018-07-22T04:11:59.354Z,11.53
2018-07-22T04:14:28.583Z,10.80
2018-07-22T04:16:57.948Z,11.43
2018-07-22T04:19:27.221Z,11.80
2018-07-22T04:21:56.512Z,13.07
2018-07-22T04:24:25.802Z,13.87
2018-07-22T04:26:55.069Z,12.63
2018-07-22T04:29:24.318Z,13.20
2018-07-22T04:31:53.603Z,13.03
2018-07-22T04:34:22.834Z,13.80
2018-07-22T04:36:52.081Z,13.83
2018-07-22T04:39:21.305Z,13.57
2018-07-22T04:41:50.633Z,14.30
2018-07-22T04:44:19.887Z,14.00
2018-07-22T04:46:49.164Z,12.40
2018-07-22T04:49:18.404Z,12.40
2018-07-22T04:51:47.636Z,12.63
2018-07-22T04:54:16.860Z,11.67
2018-07-22T04:56:46.149Z,12.57
2018-07-22T04:59:15.425Z,12.97
2018-07-22T05:01:44.671Z,13.10
2018-07-22T05:04:13.923Z,10.60
2018-07-22T05:06:43.147Z,11.47
2018-07-22T05:09:13.312Z,10.37
2018-07-22T05:11:42.737Z,10.13
2018-07-22T05:14:13.432Z,11.43
2018-07-22T05:16:42.680Z,10.07
2018-07-22T05:19:11.899Z,11.70
2018-07-22T05:21:41.137Z,13.03
2018-07-22T05:24:10.356Z,13.17
2018-07-22T05:26:39.577Z,13.87
2018-07-22T05:29:08.874Z,13.80
2018-07-22T05:31:38.123Z,15.23
2018-07-22T05:34:07.434Z,14.40
2018-07-22T05:36:36.662Z,12.30
2018-07-22T05:39:09.947Z,12.07
2018-07-22T05:41:39.310Z,11.60
2018-07-22T05:44:08.584Z,11.30
2018-07-22T05:46:37.910Z,10.03
2018-07-22T05:49:07.164Z,9.58
2018-07-22T05:51:36.374Z,9.40
2018-07-22T05:54:05.846Z,10.30
2018-07-22T05:56:35.028Z,8.70
2018-07-22T05:59:04.297Z,9.43
2018-07-22T06:01:33.600Z,11.13
2018-07-22T06:33:33.932Z,9.80
2018-07-22T06:38:39.381Z,9.10
2018-07-22T06:41:08.639Z,9.17
2018-07-22T06:43:40.877Z,8.30
2018-07-22T06:46:10.827Z,8.03
2018-07-22T06:48:40.043Z,8.97
2018-07-22T06:51:09.254Z,8.40
2018-07-22T06:53:38.779Z,8.50
2018-07-22T06:56:08.012Z,8.47
2018-07-22T06:58:37.246Z,8.63
2018-07-22T07:01:07.085Z,8.70
2018-07-22T07:03:36.313Z,9.47
2018-07-22T07:06:05.578Z,9.98
2018-07-22T07:08:34.879Z,9.13
2018-07-22T07:11:04.088Z,9.03
2018-07-22T07:13:33.313Z,9.43
2018-07-22T07:16:02.588Z,10.23
2018-07-22T07:18:31.955Z,9.47
2018-07-22T07:21:01.189Z,10.60
2018-07-22T07:23:30.530Z,11.13
2018-07-22T07:25:59.794Z,10.23
2018-07-22T07:28:29.114Z,10.33
2018-07-22T07:30:58.338Z,10.07
2018-07-22T07:33:27.611Z,9.80
2018-07-22T07:35:56.868Z,9.30
2018-07-22T07:38:26.188Z,10.03
2018-07-22T07:40:55.495Z,9.50
2018-07-22T07:43:24.778Z,9.80
2018-07-22T07:45:53.998Z,10.00
2018-07-22T07:48:23.269Z,9.87
2018-07-22T07:50:52.556Z,10.23
2018-07-22T07:53:21.830Z,9.43
2018-07-22T07:55:51.106Z,9.00
2018-07-22T07:58:20.388Z,9.10
2018-07-22T08:00:50.797Z,10.40
2018-07-22T08:03:20.131Z,9.07
2018-07-22T08:05:49.437Z,8.13
2018-07-22T08:08:18.685Z,8.78
2018-07-22T08:10:47.977Z,8.73
2018-07-22T08:13:17.218Z,7.30
2018-07-22T08:15:46.548Z,7.00
2018-07-22T08:18:15.832Z,8.03
2018-07-22T08:20:45.064Z,7.60
2018-07-22T08:23:14.322Z,7.90
2018-07-22T08:25:43.590Z,8.40
2018-07-22T08:28:12.908Z,7.80
2018-07-22T08:30:42.158Z,8.27
2018-07-22T08:33:11.417Z,7.72
2018-07-22T08:35:40.662Z,7.37
2018-07-22T08:38:09.703Z,8.18
2018-07-22T08:40:38.972Z,8.80
2018-07-22T08:43:08.370Z,8.40
2018-07-22T08:45:37.357Z,8.15
2018-07-22T08:48:07.726Z,8.45
2018-07-22T08:50:37.026Z,8.60
2018-07-22T08:53:06.730Z,8.40
2018-07-22T08:55:36.237Z,8.03
2018-07-22T08:58:06.090Z,8.93
2018-07-22T09:00:35.379Z,8.98
2018-07-22T09:03:04.626Z,8.68
2018-07-22T09:05:33.888Z,8.70
2018-07-22T09:08:03.109Z,9.43
2018-07-22T09:10:32.383Z,9.60
2018-07-22T09:13:01.688Z,10.10
2018-07-22T09:15:30.953Z,10.57
2018-07-22T09:18:00.249Z,10.60
2018-07-22T09:20:29.526Z,10.18
2018-07-22T09:22:58.767Z,9.93
2018-07-22T09:25:28.040Z,8.70
2018-07-22T09:27:57.269Z,9.27
2018-07-22T09:30:26.546Z,8.50
2018-07-22T09:32:55.865Z,9.50
2018-07-22T09:35:25.127Z,9.00
2018-07-22T09:37:54.374Z,10.00
2018-07-22T09:40:23.657Z,8.30
2018-07-22T09:42:53.045Z,9.17
2018-07-22T09:45:22.341Z,8.85
2018-07-22T09:47:51.599Z,8.88
2018-07-22T09:50:20.888Z,7.97
2018-07-22T09:52:50.346Z,8.97
2018-07-22T09:55:19.643Z,9.00
2018-07-22T09:57:49.122Z,9.25
2018-07-22T10:00:23.864Z,9.63
2018-07-22T10:02:53.078Z,9.48
2018-07-22T10:05:22.308Z,10.00
2018-07-22T10:07:51.538Z,9.90
2018-07-22T10:10:20.782Z,10.13
2018-07-22T10:12:50.283Z,9.78
2018-07-22T10:15:19.525Z,10.60
2018-07-22T10:17:48.741Z,11.00
2018-07-22T10:20:18.037Z,10.90
2018-07-22T10:22:47.323Z,11.18
2018-07-22T10:25:16.563Z,12.20
2018-07-22T10:27:45.789Z,11.03
2018-07-22T10:30:15.023Z,12.17
2018-07-22T10:32:44.241Z,11.73
2018-07-22T11:02:42.295Z,12.58
2018-07-22T11:05:11.574Z,16.10
2018-07-22T11:07:40.867Z,15.30
2018-07-22T11:10:11.058Z,14.50
2018-07-22T11:12:40.407Z,12.95
2018-07-22T11:15:09.717Z,11.33
2018-07-22T11:17:38.997Z,13.63
2018-07-22T11:20:08.325Z,12.00
2018-07-22T11:22:37.571Z,11.53
2018-07-22T11:25:06.856Z,11.95
2018-07-22T11:27:36.160Z,11.73
2018-07-22T11:30:06.025Z,11.18
2018-07-22T11:32:35.266Z,11.75
2018-07-22T11:35:04.601Z,12.15
2018-07-22T11:37:33.890Z,11.95
2018-07-22T11:40:03.142Z,11.80
2018-07-22T11:42:32.402Z,10.90
2018-07-22T11:45:01.648Z,10.43
2018-07-22T11:47:30.957Z,11.63
2018-07-22T11:50:00.195Z,12.18
2018-07-22T11:52:29.433Z,12.30
2018-07-22T11:54:58.682Z,13.13
2018-07-22T11:57:27.934Z,10.40
2018-07-22T11:59:57.217Z,11.20
2018-07-22T12:02:26.516Z,10.63
2018-07-22T12:04:55.770Z,10.80
2018-07-22T12:07:25.031Z,10.97
2018-07-22T12:42:41.572Z,10.75
2018-07-22T12:47:48.875Z,6.20
2018-07-22T12:50:21.133Z,6.17
2018-07-22T12:52:51.492Z,5.63
2018-07-22T12:55:22.785Z,5.70
2018-07-22T12:57:53.093Z,5.58
2018-07-22T13:00:24.252Z,6.08
2018-07-22T13:02:54.781Z,5.08
2018-07-22T13:05:25.924Z,5.22
2018-07-22T13:07:56.634Z,5.70
2018-07-22T13:10:27.325Z,5.37
2018-07-22T13:12:57.840Z,5.30
2018-07-22T13:15:28.753Z,5.42
2018-07-22T13:17:59.075Z,5.50
2018-07-22T13:20:30.216Z,5.03
2018-07-22T13:23:00.764Z,5.20
2018-07-22T13:25:31.621Z,5.80
2018-07-22T13:28:02.449Z,5.60
2018-07-22T13:30:33.159Z,5.28
2018-07-22T13:33:04.880Z,5.40
2018-07-22T13:35:35.874Z,5.35
2018-07-22T13:38:07.417Z,5.45
2018-07-22T13:40:38.103Z,4.80
2018-07-22T13:43:09.986Z,4.72
2018-07-22T13:45:41.552Z,5.10
2018-07-22T13:48:11.963Z,4.87
2018-07-22T13:50:42.769Z,5.22
2018-07-22T13:53:13.323Z,4.85
2018-07-22T13:55:43.744Z,4.58
2018-07-22T13:58:14.053Z,4.73
2018-07-22T14:00:44.733Z,4.53
2018-07-22T14:03:14.983Z,5.05
2018-07-22T14:05:45.888Z,5.05
2018-07-22T14:08:17.495Z,4.90
2018-07-22T14:10:47.813Z,4.60
2018-07-22T14:13:18.969Z,5.50
2018-07-22T14:15:50.985Z,5.30
2018-07-22T14:18:21.100Z,5.03
2018-07-22T14:20:51.873Z,5.53
2018-07-22T14:23:21.958Z,5.55
2018-07-22T14:25:51.292Z,6.42
2018-07-22T14:28:20.557Z,6.33
2018-07-22T14:30:49.871Z,5.97
2018-07-22T14:33:19.118Z,5.70
2018-07-22T14:35:48.410Z,5.60
2018-07-22T14:38:17.656Z,5.40
2018-07-22T14:40:46.958Z,5.33
2018-07-22T14:43:16.124Z,5.67
2018-07-22T14:45:45.363Z,5.45
2018-07-22T14:48:14.660Z,5.78
2018-07-22T14:50:43.923Z,6.03
2018-07-22T14:53:13.154Z,5.53
2018-07-22T14:55:42.387Z,6.05
2018-07-22T14:58:11.652Z,5.80
2018-07-22T15:00:40.887Z,6.20
2018-07-22T15:03:10.131Z,6.03
2018-07-22T15:05:39.382Z,5.50
2018-07-22T15:08:08.616Z,5.83
2018-07-22T15:10:37.870Z,5.47
2018-07-22T15:13:07.149Z,6.33
2018-07-22T15:15:36.391Z,7.60
2018-07-22T15:18:05.662Z,8.17
2018-07-22T15:20:34.944Z,8.63
2018-07-22T15:23:04.166Z,7.08
2018-07-22T15:25:33.397Z,7.45
2018-07-22T15:28:02.676Z,7.77
2018-07-22T15:30:31.962Z,6.17
2018-07-22T15:33:01.188Z,5.78
2018-07-22T15:35:30.416Z,4.90
2018-07-22T15:37:59.645Z,5.50
2018-07-22T15:40:28.862Z,5.50
2018-07-22T15:42:58.187Z,5.40
2018-07-22T15:45:28.657Z,6.05
2018-07-22T15:47:57.895Z,5.78
2018-07-22T15:50:27.148Z,6.27
2018-07-22T15:52:56.416Z,6.80
2018-07-22T15:55:25.835Z,6.74
2018-07-22T15:57:55.006Z,6.05
2018-07-22T16:00:24.263Z,6.72
2018-07-22T16:02:53.547Z,5.67
2018-07-22T16:05:22.858Z,6.43
2018-07-22T16:07:52.207Z,6.20
2018-07-22T16:10:21.601Z,6.37
2018-07-22T16:12:50.917Z,6.03
2018-07-22T16:15:20.262Z,6.63
2018-07-22T16:17:49.654Z,5.17
2018-07-22T16:20:19.046Z,5.42
2018-07-22T16:22:48.395Z,5.50
2018-07-22T16:25:18.710Z,5.95
2018-07-22T16:27:48.045Z,6.13
2018-07-22T16:30:17.407Z,6.93
2018-07-22T16:32:46.672Z,7.20
2018-07-22T16:35:15.898Z,7.25
2018-07-22T16:37:45.158Z,7.75
2018-07-22T16:40:14.397Z,8.60
2018-07-22T16:42:43.726Z,8.63
2018-07-22T16:45:13.008Z,7.78
2018-07-22T16:47:42.270Z,7.65
2018-07-22T16:50:11.509Z,8.30
2018-07-22T16:52:40.826Z,8.63
2018-07-22T16:55:10.124Z,7.37
2018-07-22T16:57:39.403Z,8.53
2018-07-22T17:00:08.689Z,8.88
2018-07-22T17:02:38.010Z,8.27
2018-07-22T17:05:07.216Z,8.73
2018-07-22T17:07:36.451Z,9.00
2018-07-22T17:10:05.714Z,9.60
2018-07-22T17:12:34.972Z,9.43
2018-07-22T17:15:04.252Z,8.93
2018-07-22T17:17:33.523Z,9.27
2018-07-22T17:20:02.774Z,9.10
2018-07-22T17:22:32.023Z,9.05
2018-07-22T17:25:01.286Z,8.05
2018-07-22T17:27:30.509Z,8.70
2018-07-22T17:29:59.725Z,8.10
2018-07-22T17:32:28.955Z,8.90
2018-07-22T17:34:58.195Z,9.35
2018-07-22T17:37:28.189Z,8.57
2018-07-22T17:40:01.374Z,9.47
2018-07-22T17:42:32.205Z,8.38
2018-07-22T17:45:01.444Z,9.68
2018-07-22T17:47:31.135Z,8.93
2018-07-22T17:50:00.398Z,8.78
2018-07-22T17:52:29.629Z,8.55
2018-07-22T17:54:58.886Z,10.07
2018-07-22T17:57:28.163Z,9.80
2018-07-22T17:59:57.394Z,10.20
2018-07-22T18:02:26.618Z,9.30
2018-07-22T18:04:55.933Z,9.70
2018-07-22T18:07:25.097Z,10.23
2018-07-22T18:09:54.306Z,10.60
2018-07-22T18:12:23.593Z,9.73
2018-07-22T18:14:52.815Z,9.93
2018-07-22T18:17:22.061Z,10.17
2018-07-22T18:19:51.303Z,10.00
2018-07-22T18:22:20.564Z,10.27
2018-07-22T18:24:49.806Z,10.28
2018-07-22T18:27:19.074Z,10.32
2018-07-22T18:29:48.314Z,11.30
2018-07-22T18:32:17.571Z,11.53
2018-07-22T18:34:46.815Z,10.82
2018-07-22T18:37:16.185Z,10.95
2018-07-22T18:39:45.338Z,10.45
2018-07-22T18:42:14.609Z,10.23
2018-07-22T18:44:44.092Z,10.27
2018-07-22T18:47:13.347Z,9.98
2018-07-22T18:49:42.648Z,10.90
2018-07-22T18:52:11.907Z,11.35
2018-07-22T18:54:41.108Z,11.60
2018-07-22T18:57:10.546Z,11.20
2018-07-22T18:59:39.835Z,11.63
2018-07-22T19:02:09.455Z,11.43
2018-07-22T19:04:39.685Z,12.20
2018-07-22T19:07:08.937Z,11.80
2018-07-22T19:09:38.176Z,11.70
2018-07-22T19:12:07.404Z,11.53
2018-07-22T19:14:36.659Z,10.55
2018-07-22T19:17:05.895Z,10.43
2018-07-22T19:19:35.371Z,9.23
2018-07-22T19:22:04.638Z,10.66
2018-07-22T19:24:33.912Z,10.63
2018-07-22T19:27:03.129Z,10.70
2018-07-22T19:29:32.409Z,11.70
2018-07-22T19:32:01.642Z,10.50
2018-07-22T19:34:30.966Z,10.00
2018-07-22T19:37:00.199Z,9.87
2018-07-22T19:39:29.456Z,10.13
2018-07-22T19:41:58.730Z,9.87
2018-07-22T19:44:28.007Z,10.53
2018-07-22T19:46:57.225Z,10.40
2018-07-22T19:49:26.515Z,11.83
2018-07-22T19:51:55.790Z,10.63
2018-07-22T19:54:25.027Z,10.72
2018-07-22T19:56:54.294Z,11.20
2018-07-22T19:59:23.545Z,10.10
2018-07-22T20:01:52.754Z,10.80
2018-07-22T20:04:22.054Z,11.08
2018-07-22T20:06:51.341Z,11.50
2018-07-22T20:09:20.630Z,11.80
2018-07-22T20:11:49.848Z,11.68
2018-07-22T20:14:19.112Z,11.00
2018-07-22T20:16:48.356Z,11.80
2018-07-22T20:19:17.610Z,10.90
2018-07-22T20:21:46.868Z,11.40
2018-07-22T20:24:17.227Z,11.10
2018-07-22T20:26:46.402Z,11.08
2018-07-22T20:29:15.665Z,11.90
2018-07-22T20:31:44.941Z,11.08
2018-07-22T20:34:14.146Z,11.22
2018-07-22T20:36:43.375Z,11.35
2018-07-22T20:39:12.811Z,10.55
2018-07-22T20:41:42.235Z,11.40
2018-07-22T20:44:11.474Z,11.33
2018-07-22T20:46:40.721Z,11.48
2018-07-22T20:49:09.952Z,10.75
2018-07-22T20:51:39.221Z,10.88
2018-07-22T20:54:08.451Z,11.20
2018-07-22T20:56:37.724Z,11.20
2018-07-22T20:59:06.946Z,11.68
2018-07-22T21:01:36.174Z,11.33
2018-07-22T21:04:05.457Z,11.68
2018-07-22T21:06:34.732Z,11.77
2018-07-22T21:09:05.345Z,11.47
2018-07-22T21:11:51.319Z,11.97
2018-07-22T21:14:20.574Z,12.30
2018-07-22T21:16:49.814Z,11.57
2018-07-22T21:19:19.066Z,11.63
2018-07-22T21:21:48.301Z,12.23
2018-07-22T21:24:17.539Z,12.30
2018-07-22T21:26:46.837Z,12.30
2018-07-22T21:29:16.067Z,12.37
2018-07-22T21:31:45.306Z,12.85
2018-07-22T21:34:14.550Z,14.68
2018-07-22T21:36:43.827Z,12.60
2018-07-22T21:39:13.055Z,12.25
2018-07-22T21:41:42.309Z,11.46
2018-07-22T21:44:11.549Z,11.25
2018-07-22T21:46:40.791Z,11.73
2018-07-22T21:49:10.056Z,10.83
2018-07-22T21:51:39.297Z,11.80
2018-07-22T21:54:08.897Z,11.35
2018-07-22T21:56:38.148Z,11.50
2018-07-22T21:59:07.618Z,11.83
2018-07-22T22:01:36.905Z,12.50
2018-07-22T22:04:06.156Z,11.83
2018-07-22T22:06:35.384Z,12.50
2018-07-22T22:09:05.771Z,12.53
2018-07-22T22:11:34.999Z,12.43
2018-07-22T22:14:04.248Z,12.33
2018-07-22T22:16:33.499Z,11.83
2018-07-22T22:19:02.747Z,11.75
2018-07-22T22:21:31.999Z,11.97
2018-07-22T22:24:01.273Z,12.03
2018-07-22T22:26:30.537Z,12.57
2018-07-22T22:28:59.829Z,12.27
2018-07-22T22:31:29.106Z,13.07
2018-07-22T22:33:58.316Z,13.10
2018-07-22T22:36:27.554Z,12.33
2018-07-22T22:38:56.782Z,12.37
2018-07-22T22:41:26.029Z,12.23
2018-07-22T22:43:55.254Z,12.03
2018-07-22T22:46:24.489Z,12.67
2018-07-22T22:48:53.747Z,12.83
2018-07-22T22:51:23.048Z,12.50
2018-07-22T22:53:52.347Z,13.37
2018-07-22T22:56:21.582Z,13.27
2018-07-22T22:59:07.731Z,12.57
2018-07-22T23:01:37.212Z,11.93
2018-07-22T23:04:06.599Z,12.40
2018-07-22T23:06:35.822Z,13.17
2018-07-22T23:09:10.037Z,12.30
2018-07-22T23:11:39.550Z,11.70
2018-07-22T23:14:08.816Z,12.17
2018-07-22T23:16:38.817Z,11.93
2018-07-22T23:19:08.178Z,12.07
2018-07-22T23:21:37.426Z,12.33
2018-07-22T23:24:06.686Z,11.77
2018-07-22T23:26:35.906Z,11.47
2018-07-22T23:29:06.267Z,11.50
2018-07-22T23:31:35.481Z,11.80
2018-07-22T23:34:04.719Z,12.30
2018-07-22T23:36:33.963Z,12.27
2018-07-22T23:39:03.242Z,12.90
2018-07-22T23:41:32.483Z,12.50
2018-07-22T23:44:01.767Z,12.97
2018-07-22T23:46:31.013Z,13.10
2018-07-22T23:49:00.280Z,13.67
2018-07-22T23:51:29.541Z,13.17
2018-07-22T23:53:58.799Z,14.07
2018-07-22T23:56:28.024Z,13.03
2018-07-22T23:58:57.274Z,13.10
